sensor_id;sensor_type;location;lat;lon;timestamp;P1;durP1;ratioP1;P2;durP2;ratioP2
75997;SDS011;64685;48.762;44.822;2023-07-31T00:00:45;7.20;;;3.42;;
75997;SDS011;64685;48.762;44.822;2023-07-31T00:05:48;6.75;;;3.65;;
75997;SDS011;64685;48.762;44.822;2023-07-31T00:10:51;10.48;;;4.35;;
75997;SDS011;64685;48.762;44.822;2023-07-31T00:15:55;12.82;;;5.20;;
75997;SDS011;64685;48.762;44.822;2023-07-31T00:20:58;11.80;;;5.18;;
75997;SDS011;64685;48.762;44.822;2023-07-31T00:26:01;11.15;;;5.53;;
75997;SDS011;64685;48.762;44.822;2023-07-31T00:31:04;11.30;;;4.63;;
75997;SDS011;64685;48.762;44.822;2023-07-31T00:36:07;10.70;;;4.93;;
75997;SDS011;64685;48.762;44.822;2023-07-31T00:41:09;9.55;;;4.50;;
75997;SDS011;64685;48.762;44.822;2023-07-31T00:46:12;8.13;;;4.22;;
75997;SDS011;64685;48.762;44.822;2023-07-31T00:51:17;8.45;;;4.30;;
75997;SDS011;64685;48.762;44.822;2023-07-31T00:56:20;10.57;;;4.90;;
75997;SDS011;64685;48.762;44.822;2023-07-31T01:01:22;8.85;;;4.43;;
75997;SDS011;64685;48.762;44.822;2023-07-31T01:11:53;10.93;;;4.68;;
75997;SDS011;64685;48.762;44.822;2023-07-31T01:27:49;10.05;;;4.88;;
75997;SDS011;64685;48.762;44.822;2023-07-31T01:32:59;11.23;;;5.28;;
75997;SDS011;64685;48.762;44.822;2023-07-31T01:38:06;9.45;;;4.95;;
75997;SDS011;64685;48.762;44.822;2023-07-31T01:43:09;9.32;;;4.57;;
75997;SDS011;64685;48.762;44.822;2023-07-31T01:48:11;11.43;;;4.75;;
75997;SDS011;64685;48.762;44.822;2023-07-31T01:53:17;10.13;;;5.40;;
75997;SDS011;64685;48.762;44.822;2023-07-31T01:58:20;9.18;;;4.63;;
75997;SDS011;64685;48.762;44.822;2023-07-31T02:03:22;9.30;;;4.47;;
75997;SDS011;64685;48.762;44.822;2023-07-31T02:08:27;10.27;;;5.30;;
75997;SDS011;64685;48.762;44.822;2023-07-31T02:13:29;10.07;;;5.20;;
75997;SDS011;64685;48.762;44.822;2023-07-31T02:18:32;10.85;;;5.15;;
75997;SDS011;64685;48.762;44.822;2023-07-31T02:28:39;12.25;;;5.35;;
75997;SDS011;64685;48.762;44.822;2023-07-31T02:33:46;12.98;;;5.38;;
75997;SDS011;64685;48.762;44.822;2023-07-31T02:38:48;12.80;;;6.60;;
75997;SDS011;64685;48.762;44.822;2023-07-31T02:43:51;11.85;;;7.00;;
75997;SDS011;64685;48.762;44.822;2023-07-31T02:48:54;10.88;;;6.53;;
75997;SDS011;64685;48.762;44.822;2023-07-31T02:53:57;11.38;;;6.53;;
75997;SDS011;64685;48.762;44.822;2023-07-31T02:58:59;14.02;;;6.25;;
75997;SDS011;64685;48.762;44.822;2023-07-31T03:04:02;10.70;;;5.97;;
75997;SDS011;64685;48.762;44.822;2023-07-31T03:09:05;10.05;;;5.45;;
75997;SDS011;64685;48.762;44.822;2023-07-31T03:14:08;12.00;;;6.03;;
75997;SDS011;64685;48.762;44.822;2023-07-31T03:19:10;11.10;;;5.43;;
75997;SDS011;64685;48.762;44.822;2023-07-31T03:24:13;10.30;;;6.05;;
75997;SDS011;64685;48.762;44.822;2023-07-31T03:29:16;11.63;;;5.00;;
75997;SDS011;64685;48.762;44.822;2023-07-31T03:34:19;7.60;;;4.57;;
75997;SDS011;64685;48.762;44.822;2023-07-31T03:39:21;9.35;;;4.45;;
75997;SDS011;64685;48.762;44.822;2023-07-31T03:44:25;8.50;;;4.63;;
75997;SDS011;64685;48.762;44.822;2023-07-31T03:49:27;8.95;;;4.20;;
75997;SDS011;64685;48.762;44.822;2023-07-31T03:54:30;9.65;;;4.75;;
75997;SDS011;64685;48.762;44.822;2023-07-31T03:59:33;9.77;;;6.03;;
75997;SDS011;64685;48.762;44.822;2023-07-31T04:04:35;10.05;;;5.65;;
75997;SDS011;64685;48.762;44.822;2023-07-31T04:09:38;11.75;;;5.35;;
75997;SDS011;64685;48.762;44.822;2023-07-31T04:14:41;9.65;;;5.30;;
75997;SDS011;64685;48.762;44.822;2023-07-31T04:19:44;10.25;;;4.70;;
75997;SDS011;64685;48.762;44.822;2023-07-31T04:24:46;8.70;;;4.43;;
75997;SDS011;64685;48.762;44.822;2023-07-31T04:29:49;9.00;;;3.95;;
75997;SDS011;64685;48.762;44.822;2023-07-31T04:34:53;9.27;;;4.25;;
75997;SDS011;64685;48.762;44.822;2023-07-31T04:39:55;9.13;;;4.45;;
75997;SDS011;64685;48.762;44.822;2023-07-31T04:44:58;6.22;;;3.83;;
75997;SDS011;64685;48.762;44.822;2023-07-31T04:50:01;8.13;;;3.58;;
75997;SDS011;64685;48.762;44.822;2023-07-31T04:55:04;7.85;;;3.60;;
75997;SDS011;64685;48.762;44.822;2023-07-31T05:00:07;8.25;;;3.05;;
75997;SDS011;64685;48.762;44.822;2023-07-31T05:05:10;5.25;;;2.92;;
75997;SDS011;64685;48.762;44.822;2023-07-31T05:10:13;6.97;;;3.50;;
75997;SDS011;64685;48.762;44.822;2023-07-31T05:15:15;5.40;;;3.05;;
75997;SDS011;64685;48.762;44.822;2023-07-31T05:20:18;5.90;;;3.03;;
75997;SDS011;64685;48.762;44.822;2023-07-31T05:25:20;8.25;;;3.00;;
75997;SDS011;64685;48.762;44.822;2023-07-31T05:30:23;11.05;;;3.67;;
75997;SDS011;64685;48.762;44.822;2023-07-31T05:35:26;5.55;;;3.17;;
75997;SDS011;64685;48.762;44.822;2023-07-31T05:40:31;7.85;;;2.90;;
75997;SDS011;64685;48.762;44.822;2023-07-31T05:45:35;7.85;;;3.40;;
75997;SDS011;64685;48.762;44.822;2023-07-31T05:50:38;6.55;;;3.35;;
75997;SDS011;64685;48.762;44.822;2023-07-31T05:55:42;6.35;;;2.97;;
75997;SDS011;64685;48.762;44.822;2023-07-31T06:00:44;9.50;;;3.97;;
75997;SDS011;64685;48.762;44.822;2023-07-31T06:05:47;8.15;;;3.45;;
